Terminal Aerodrome Forecast
Issued by NWS

Current Version | Previous Version | Text Only | Print | Product List | Glossary On
Versions: 1 2 3 4 5 6 7 8 9 10 11 12 13 14 15 16 17 18 19
000
FTUS46 KSEW 201700 RRA
TAFHQM
TAF
KHQM 201746Z 2018/2118 24008KT P6SM OVC025
     FM202000 22010KT P6SM BKN025
     FM210000 25008KT P6SM SCT040
     FM210500 22008KT P6SM BKN030
     FM211000 24003KT P6SM OVC015
      TEMPO 2112/2115 3SM BR OVC008=

USA.gov is the U.S. government's official web portal to all federal, state and local government web resources and services.